Aérodrome :







RETROUVEZ-NOUS SUR...

 
LOGIN :

S'inscrire | Disclaimer

   EN    FR    IT 

 









Légende :    VFR   VFR Marginal   IFR   IFR Intensif   IFR Très Intensif
Visi : 
Plafond : 
>= 8 km
>= 3000ft
5 à 8 km
1000 à 3000 ft
1500m à 5 km
500 à 1000 ft
800 à 1500m
200 à 500 ft
< 800m
< 200 ft
Symboles :   Orages  Brouillard  Fortes neiges  Fortes précipitations  Vent > 20 kt






- Altitude de l'aérodrome : 108 ft
- Code IATA : YGP


CYGP - Gaspé

DERNIER METAR :
  • 261600Z 34011G18KT 15SM FEW045 FEW220 03/M05 A3007 RMK CU1CI1 CU TR CI TR SLP187

METARs EXPIRÉS :
  • 261500Z 35010G16KT 320V020 15SM FEW045 FEW220 02/M05 A3007 RMK CU1CI1 SLP185
  • 261400Z 30006KT 250V020 15SM FEW040 FEW220 01/M06 A3006 RMK CU1CI1 CU TR SLP183

TAF TAF CYGP
Valide du 26 à 14h jusqu'au 27 à 02h UTC


261338Z 2614/2702 30006KT P6SM FEW030
FM261600 34008KT P6SM SCT020
TEMPO 2617/2702 BKN020
BECMG 2623/2701 VRB03KT RMK NXT FCST BY 262000Z



MET'MAP, la Météo Aéronautique d'un coup d'oeil ! - Copyright ORBIFLY Décembre 2007 - Disclaimer

ORBIFLY MET'MAP TEAM :

Programmation & Développement : Alexandra Zaïnal
Sur une idée originale de : Baudouin d'Aumeries
Assistance à la programmation : Marc-Olivier Méhu
Soutien technique & logistique : Manuel Goepfert

Contact : metmap@orbifly.com




SOURCES & CREDITS :

   NOAA